McAlester, OK

5:02 PM CST on December 02, 2016 (GMT -0600)
South McAlester | | Change Station

Elev 751 ft 34.92 °N, 95.75 °W | Updated 19 seconds ago

Overcast
Overcast
55.9 °F
Feels Like 55.9 °F
N
0.0
Wind Variable Wind from NW

Today
High -- | Low -- °F
--% Chance of Precip.
Yesterday
High -- | Low -- °F
Precip. -- in
Pressure 30.16 in
Visibility 10.0 miles
Clouds Overcast 7000 ft
Dew Point 42 °F
Humidity 59%
Rainfall 0.00 in
Snow Depth Not available.
7:13 AM 5:11 PM
Waxing Crescent, 11% visible
METAR KMLC 022253Z AUTO 01004KT 10SM OVC070 14/04 A3016 RMK AO2 SLP212 T01390044
Pressure 30.16 in
Visibility 10.0 miles
Clouds Overcast 7000 ft
Dew Point 42 °F
Humidity 59%
Rainfall 0.00 in
Snow Depth Not available.
7:13 AM 5:11 PM
Waxing Crescent, 11% visible
METAR KMLC 022253Z AUTO 01004KT 10SM OVC070 14/04 A3016 RMK AO2 SLP212 T01390044

10-Day Weather Forecast

Almanac

Astronomy

Dec. 02, 2016 Rise Set
Actual Time
Civil Twilight
Nautical Twilight
Astronomical Twilight
Moon
Length of Visible Light
Length of Day
Tomorrow will be .
, % of the Moon is Illuminated

Today's Extremes

State Highs State Lows

Community

WunderPhotos

Upload Photos

1,955,375 photos uploaded!

WunderBlog® & News

Nearby

Air Quality

  Air Quality AQ Index Pollutant
Not available.

Snow Depth

Station Depth Elevation

Earthquake Activity

City Distance Mag. Time & Date
Minimum magnitude displayed is 2.5.

Coastal Water Temperatures

Place Temperature

Stations

Nearby Weather Stations

Station Location Temp. Windchill Dew Point Humidity Wind Precip. Elev Updated Type
                   

Watches & Warnings

There are currently no watches in effect.